sensor_id;sensor_type;location;lat;lon;timestamp;temperature;humidity
29207;DHT22;16247;50.840;4.382;2022-10-16T00:04:19;14.90;99.90
29207;DHT22;16247;50.840;4.382;2022-10-16T00:07:00;15.10;99.90
29207;DHT22;16247;50.840;4.382;2022-10-16T00:12:59;15.10;99.90
29207;DHT22;16247;50.840;4.382;2022-10-16T00:15:49;15.10;99.90
29207;DHT22;16247;50.840;4.382;2022-10-16T00:18:52;15.00;99.90
29207;DHT22;16247;50.840;4.382;2022-10-16T00:22:01;14.80;99.90
29207;DHT22;16247;50.840;4.382;2022-10-16T00:24:45;14.80;99.90
29207;DHT22;16247;50.840;4.382;2022-10-16T00:30:45;14.90;99.90
29207;DHT22;16247;50.840;4.382;2022-10-16T00:33:48;14.90;99.90
29207;DHT22;16247;50.840;4.382;2022-10-16T00:36:37;14.80;99.90
29207;DHT22;16247;50.840;4.382;2022-10-16T00:39:04;14.80;99.90
29207;DHT22;16247;50.840;4.382;2022-10-16T00:41:32;14.80;99.90
29207;DHT22;16247;50.840;4.382;2022-10-16T00:44:02;14.80;99.90
29207;DHT22;16247;50.840;4.382;2022-10-16T00:46:46;14.80;99.90
29207;DHT22;16247;50.840;4.382;2022-10-16T00:49:20;14.90;99.90
29207;DHT22;16247;50.840;4.382;2022-10-16T00:51:50;14.70;99.90
29207;DHT22;16247;50.840;4.382;2022-10-16T00:54:21;14.70;99.90
29207;DHT22;16247;50.840;4.382;2022-10-16T00:56:49;14.90;99.90
29207;DHT22;16247;50.840;4.382;2022-10-16T00:59:22;14.80;99.90
29207;DHT22;16247;50.840;4.382;2022-10-16T01:01:54;14.80;99.90
29207;DHT22;16247;50.840;4.382;2022-10-16T01:04:23;14.50;99.90
29207;DHT22;16247;50.840;4.382;2022-10-16T01:32:19;14.60;99.90
29207;DHT22;16247;50.840;4.382;2022-10-16T01:35:25;14.60;99.90
29207;DHT22;16247;50.840;4.382;2022-10-16T01:38:08;14.50;99.90
29207;DHT22;16247;50.840;4.382;2022-10-16T01:40:50;14.50;99.90
29207;DHT22;16247;50.840;4.382;2022-10-16T01:43:31;14.70;99.90
29207;DHT22;16247;50.840;4.382;2022-10-16T01:46:13;14.60;99.90
29207;DHT22;16247;50.840;4.382;2022-10-16T01:49:04;14.60;99.90
29207;DHT22;16247;50.840;4.382;2022-10-16T01:51:34;14.60;99.90
29207;DHT22;16247;50.840;4.382;2022-10-16T01:54:06;14.60;99.90
29207;DHT22;16247;50.840;4.382;2022-10-16T01:56:48;14.60;99.90
29207;DHT22;16247;50.840;4.382;2022-10-16T01:59:20;14.60;99.90
29207;DHT22;16247;50.840;4.382;2022-10-16T02:02:07;14.60;99.90
29207;DHT22;16247;50.840;4.382;2022-10-16T02:04:42;14.60;99.90
29207;DHT22;16247;50.840;4.382;2022-10-16T02:07:10;14.60;99.90
29207;DHT22;16247;50.840;4.382;2022-10-16T02:09:38;14.50;99.90
29207;DHT22;16247;50.840;4.382;2022-10-16T02:12:22;14.50;99.90
29207;DHT22;16247;50.840;4.382;2022-10-16T02:14:49;14.50;99.90
29207;DHT22;16247;50.840;4.382;2022-10-16T02:17:22;14.50;99.90
29207;DHT22;16247;50.840;4.382;2022-10-16T02:19:53;14.50;99.90
29207;DHT22;16247;50.840;4.382;2022-10-16T02:22:32;14.60;99.90
29207;DHT22;16247;50.840;4.382;2022-10-16T02:25:26;14.50;99.90
29207;DHT22;16247;50.840;4.382;2022-10-16T02:31:35;14.50;99.90
29207;DHT22;16247;50.840;4.382;2022-10-16T02:34:29;14.40;99.90
29207;DHT22;16247;50.840;4.382;2022-10-16T02:37:55;14.40;99.90
29207;DHT22;16247;50.840;4.382;2022-10-16T02:40:49;14.40;99.90
29207;DHT22;16247;50.840;4.382;2022-10-16T02:43:20;14.50;99.90
29207;DHT22;16247;50.840;4.382;2022-10-16T02:45:46;14.60;99.90
29207;DHT22;16247;50.840;4.382;2022-10-16T02:48:11;14.30;99.90
29207;DHT22;16247;50.840;4.382;2022-10-16T02:50:38;14.30;99.90
29207;DHT22;16247;50.840;4.382;2022-10-16T02:53:03;14.20;99.90
29207;DHT22;16247;50.840;4.382;2022-10-16T02:55:29;14.30;99.90
29207;DHT22;16247;50.840;4.382;2022-10-16T02:57:56;14.20;99.90
29207;DHT22;16247;50.840;4.382;2022-10-16T03:00:25;14.10;99.90
29207;DHT22;16247;50.840;4.382;2022-10-16T03:03:33;14.30;99.90
29207;DHT22;16247;50.840;4.382;2022-10-16T03:12:34;14.40;99.90
29207;DHT22;16247;50.840;4.382;2022-10-16T03:21:50;14.40;99.90
29207;DHT22;16247;50.840;4.382;2022-10-16T03:28:06;14.30;99.90
29207;DHT22;16247;50.840;4.382;2022-10-16T03:34:20;14.30;99.90
29207;DHT22;16247;50.840;4.382;2022-10-16T03:37:28;14.30;99.90
29207;DHT22;16247;50.840;4.382;2022-10-16T03:40:31;14.30;99.90
29207;DHT22;16247;50.840;4.382;2022-10-16T03:44:06;14.40;99.90
29207;DHT22;16247;50.840;4.382;2022-10-16T03:46:45;14.40;99.90
29207;DHT22;16247;50.840;4.382;2022-10-16T03:49:10;14.40;99.90
29207;DHT22;16247;50.840;4.382;2022-10-16T03:52:29;14.60;99.90
29207;DHT22;16247;50.840;4.382;2022-10-16T03:55:32;14.50;99.90
29207;DHT22;16247;50.840;4.382;2022-10-16T03:58:25;14.50;99.90
29207;DHT22;16247;50.840;4.382;2022-10-16T04:01:13;14.60;99.90
29207;DHT22;16247;50.840;4.382;2022-10-16T04:03:44;14.50;99.90
29207;DHT22;16247;50.840;4.382;2022-10-16T04:06:15;14.40;99.90
29207;DHT22;16247;50.840;4.382;2022-10-16T04:08:44;14.40;99.90
29207;DHT22;16247;50.840;4.382;2022-10-16T04:11:29;14.50;99.90
29207;DHT22;16247;50.840;4.382;2022-10-16T04:14:15;14.40;99.90
29207;DHT22;16247;50.840;4.382;2022-10-16T04:20:07;14.40;99.90
29207;DHT22;16247;50.840;4.382;2022-10-16T04:29:36;14.40;99.90
29207;DHT22;16247;50.840;4.382;2022-10-16T04:32:01;14.30;99.90
29207;DHT22;16247;50.840;4.382;2022-10-16T04:34:33;14.30;99.90
29207;DHT22;16247;50.840;4.382;2022-10-16T04:36:59;14.20;99.90
29207;DHT22;16247;50.840;4.382;2022-10-16T04:39:25;14.30;99.90
29207;DHT22;16247;50.840;4.382;2022-10-16T04:41:54;14.30;99.90
29207;DHT22;16247;50.840;4.382;2022-10-16T04:44:58;14.30;99.90
29207;DHT22;16247;50.840;4.382;2022-10-16T04:48:02;14.20;99.90
29207;DHT22;16247;50.840;4.382;2022-10-16T04:51:10;14.20;99.90
29207;DHT22;16247;50.840;4.382;2022-10-16T04:53:42;14.10;99.90
29207;DHT22;16247;50.840;4.382;2022-10-16T04:56:10;14.40;99.90
29207;DHT22;16247;50.840;4.382;2022-10-16T04:58:56;14.20;99.90
29207;DHT22;16247;50.840;4.382;2022-10-16T05:01:23;14.40;99.90
29207;DHT22;16247;50.840;4.382;2022-10-16T05:03:51;14.30;99.90
29207;DHT22;16247;50.840;4.382;2022-10-16T05:06:17;14.20;99.90
29207;DHT22;16247;50.840;4.382;2022-10-16T05:08:44;14.30;99.90
29207;DHT22;16247;50.840;4.382;2022-10-16T05:14:20;14.10;99.90
29207;DHT22;16247;50.840;4.382;2022-10-16T05:17:19;14.10;99.90
29207;DHT22;16247;50.840;4.382;2022-10-16T05:23:50;14.00;99.90
29207;DHT22;16247;50.840;4.382;2022-10-16T05:26:17;14.30;99.90
29207;DHT22;16247;50.840;4.382;2022-10-16T05:28:47;14.20;99.90
29207;DHT22;16247;50.840;4.382;2022-10-16T05:31:12;14.00;99.90
29207;DHT22;16247;50.840;4.382;2022-10-16T05:33:43;14.00;99.90
29207;DHT22;16247;50.840;4.382;2022-10-16T05:36:14;14.00;99.90
29207;DHT22;16247;50.840;4.382;2022-10-16T05:38:44;14.00;99.90
29207;DHT22;16247;50.840;4.382;2022-10-16T05:41:11;14.00;99.90
29207;DHT22;16247;50.840;4.382;2022-10-16T05:43:39;14.00;99.90
29207;DHT22;16247;50.840;4.382;2022-10-16T05:46:08;14.00;99.90
29207;DHT22;16247;50.840;4.382;2022-10-16T05:52:21;13.90;99.90
29207;DHT22;16247;50.840;4.382;2022-10-16T06:05:18;13.90;99.90
29207;DHT22;16247;50.840;4.382;2022-10-16T06:07:44;14.00;99.90
29207;DHT22;16247;50.840;4.382;2022-10-16T06:10:10;13.90;99.90
29207;DHT22;16247;50.840;4.382;2022-10-16T06:12:37;13.90;99.90
29207;DHT22;16247;50.840;4.382;2022-10-16T06:15:02;14.00;99.90
29207;DHT22;16247;50.840;4.382;2022-10-16T06:17:28;14.00;99.90
29207;DHT22;16247;50.840;4.382;2022-10-16T06:19:54;14.10;99.90
29207;DHT22;16247;50.840;4.382;2022-10-16T06:22:20;14.40;99.90
29207;DHT22;16247;50.840;4.382;2022-10-16T06:24:46;14.20;99.90
29207;DHT22;16247;50.840;4.382;2022-10-16T06:27:12;14.20;99.90
29207;DHT22;16247;50.840;4.382;2022-10-16T06:29:38;14.40;99.90
29207;DHT22;16247;50.840;4.382;2022-10-16T06:32:04;14.40;99.90
29207;DHT22;16247;50.840;4.382;2022-10-16T06:34:30;14.20;99.90
29207;DHT22;16247;50.840;4.382;2022-10-16T06:36:55;14.20;99.90
29207;DHT22;16247;50.840;4.382;2022-10-16T06:39:21;14.30;99.90
29207;DHT22;16247;50.840;4.382;2022-10-16T06:41:46;14.40;99.90
29207;DHT22;16247;50.840;4.382;2022-10-16T06:44:12;14.20;99.90
29207;DHT22;16247;50.840;4.382;2022-10-16T06:46:38;14.30;99.90
29207;DHT22;16247;50.840;4.382;2022-10-16T06:49:03;14.30;99.90
29207;DHT22;16247;50.840;4.382;2022-10-16T06:51:29;14.50;99.90
29207;DHT22;16247;50.840;4.382;2022-10-16T06:53:57;14.40;99.90
29207;DHT22;16247;50.840;4.382;2022-10-16T06:56:24;14.40;99.90
29207;DHT22;16247;50.840;4.382;2022-10-16T06:58:51;14.70;99.90
29207;DHT22;16247;50.840;4.382;2022-10-16T07:01:20;14.60;99.90
29207;DHT22;16247;50.840;4.382;2022-10-16T07:03:46;14.70;99.90
29207;DHT22;16247;50.840;4.382;2022-10-16T07:06:14;14.80;99.90
29207;DHT22;16247;50.840;4.382;2022-10-16T07:08:42;14.70;99.90
29207;DHT22;16247;50.840;4.382;2022-10-16T07:11:11;14.80;99.90
29207;DHT22;16247;50.840;4.382;2022-10-16T07:13:38;14.70;99.90
29207;DHT22;16247;50.840;4.382;2022-10-16T07:16:19;14.80;99.90
29207;DHT22;16247;50.840;4.382;2022-10-16T07:18:45;14.80;99.90
29207;DHT22;16247;50.840;4.382;2022-10-16T07:21:16;14.80;99.90
29207;DHT22;16247;50.840;4.382;2022-10-16T07:23:42;15.00;99.90
29207;DHT22;16247;50.840;4.382;2022-10-16T07:26:08;14.80;99.90
29207;DHT22;16247;50.840;4.382;2022-10-16T07:28:54;14.80;99.90
29207;DHT22;16247;50.840;4.382;2022-10-16T08:10:43;15.50;99.90
29207;DHT22;16247;50.840;4.382;2022-10-16T08:13:15;15.50;99.90
29207;DHT22;16247;50.840;4.382;2022-10-16T08:15:47;15.80;99.90
29207;DHT22;16247;50.840;4.382;2022-10-16T08:18:18;15.50;99.90
29207;DHT22;16247;50.840;4.382;2022-10-16T08:20:47;15.50;99.90
29207;DHT22;16247;50.840;4.382;2022-10-16T08:23:16;15.90;99.90
29207;DHT22;16247;50.840;4.382;2022-10-16T08:25:45;15.60;99.90
29207;DHT22;16247;50.840;4.382;2022-10-16T08:28:11;15.80;99.90
29207;DHT22;16247;50.840;4.382;2022-10-16T08:30:38;15.80;99.90
29207;DHT22;16247;50.840;4.382;2022-10-16T08:33:05;15.90;99.90
29207;DHT22;16247;50.840;4.382;2022-10-16T08:35:33;15.90;99.90
29207;DHT22;16247;50.840;4.382;2022-10-16T08:37:58;16.00;99.90
29207;DHT22;16247;50.840;4.382;2022-10-16T08:40:29;16.10;99.90
29207;DHT22;16247;50.840;4.382;2022-10-16T08:46:13;16.10;99.90
29207;DHT22;16247;50.840;4.382;2022-10-16T08:48:51;16.20;99.90
29207;DHT22;16247;50.840;4.382;2022-10-16T08:51:27;16.20;99.90
29207;DHT22;16247;50.840;4.382;2022-10-16T08:54:08;16.50;99.90
29207;DHT22;16247;50.840;4.382;2022-10-16T08:56:53;16.40;99.90
29207;DHT22;16247;50.840;4.382;2022-10-16T08:59:26;16.50;99.90
29207;DHT22;16247;50.840;4.382;2022-10-16T09:05:38;16.70;99.90
29207;DHT22;16247;50.840;4.382;2022-10-16T09:13:55;16.70;99.90
29207;DHT22;16247;50.840;4.382;2022-10-16T09:16:33;16.70;99.90
29207;DHT22;16247;50.840;4.382;2022-10-16T09:19:25;16.80;99.90
29207;DHT22;16247;50.840;4.382;2022-10-16T09:22:27;16.80;99.90
29207;DHT22;16247;50.840;4.382;2022-10-16T09:24:57;17.10;99.90
29207;DHT22;16247;50.840;4.382;2022-10-16T09:27:26;16.90;99.90
29207;DHT22;16247;50.840;4.382;2022-10-16T09:29:56;17.00;99.90
29207;DHT22;16247;50.840;4.382;2022-10-16T09:32:28;17.30;99.90
29207;DHT22;16247;50.840;4.382;2022-10-16T09:34:55;17.50;99.90
29207;DHT22;16247;50.840;4.382;2022-10-16T09:37:30;17.40;99.90
29207;DHT22;16247;50.840;4.382;2022-10-16T09:40:47;17.50;99.90
29207;DHT22;16247;50.840;4.382;2022-10-16T09:46:06;17.80;99.90
29207;DHT22;16247;50.840;4.382;2022-10-16T09:49:25;18.00;99.90
29207;DHT22;16247;50.840;4.382;2022-10-16T09:52:24;18.00;99.90
29207;DHT22;16247;50.840;4.382;2022-10-16T09:55:27;18.00;99.90
29207;DHT22;16247;50.840;4.382;2022-10-16T09:58:16;18.10;99.90
29207;DHT22;16247;50.840;4.382;2022-10-16T10:01:05;18.20;99.90
29207;DHT22;16247;50.840;4.382;2022-10-16T10:04:00;18.20;99.90
29207;DHT22;16247;50.840;4.382;2022-10-16T10:06:36;18.00;99.90
29207;DHT22;16247;50.840;4.382;2022-10-16T10:09:45;18.00;99.90
29207;DHT22;16247;50.840;4.382;2022-10-16T10:12:53;18.20;99.90
29207;DHT22;16247;50.840;4.382;2022-10-16T10:15:51;18.10;99.90
29207;DHT22;16247;50.840;4.382;2022-10-16T10:18:27;18.10;99.90
29207;DHT22;16247;50.840;4.382;2022-10-16T10:21:38;18.20;99.90
29207;DHT22;16247;50.840;4.382;2022-10-16T10:24:39;18.30;99.90
29207;DHT22;16247;50.840;4.382;2022-10-16T10:46:05;19.20;99.90
29207;DHT22;16247;50.840;4.382;2022-10-16T11:15:35;19.30;99.90
29207;DHT22;16247;50.840;4.382;2022-10-16T11:21:51;19.10;99.90
29207;DHT22;16247;50.840;4.382;2022-10-16T11:28:09;19.40;99.90
29207;DHT22;16247;50.840;4.382;2022-10-16T11:40:59;19.50;99.90
29207;DHT22;16247;50.840;4.382;2022-10-16T11:44:27;19.70;99.90
29207;DHT22;16247;50.840;4.382;2022-10-16T11:47:58;19.80;99.90
29207;DHT22;16247;50.840;4.382;2022-10-16T11:50:55;19.70;99.90
29207;DHT22;16247;50.840;4.382;2022-10-16T11:54:28;19.80;99.90
29207;DHT22;16247;50.840;4.382;2022-10-16T11:57:56;19.70;99.90
29207;DHT22;16247;50.840;4.382;2022-10-16T12:04:39;19.50;99.90
29207;DHT22;16247;50.840;4.382;2022-10-16T12:11:09;19.70;99.90
29207;DHT22;16247;50.840;4.382;2022-10-16T12:15:03;20.00;99.90
29207;DHT22;16247;50.840;4.382;2022-10-16T12:18:23;20.00;99.90
29207;DHT22;16247;50.840;4.382;2022-10-16T12:21:37;20.00;99.90
29207;DHT22;16247;50.840;4.382;2022-10-16T12:25:37;19.90;99.90
29207;DHT22;16247;50.840;4.382;2022-10-16T12:28:26;20.00;99.90
29207;DHT22;16247;50.840;4.382;2022-10-16T12:31:12;20.20;99.90
29207;DHT22;16247;50.840;4.382;2022-10-16T12:34:03;20.10;99.90
29207;DHT22;16247;50.840;4.382;2022-10-16T12:36:44;20.00;99.90
29207;DHT22;16247;50.840;4.382;2022-10-16T12:43:48;20.30;99.90
29207;DHT22;16247;50.840;4.382;2022-10-16T12:50:53;20.40;99.90
29207;DHT22;16247;50.840;4.382;2022-10-16T13:00:28;20.40;99.90
29207;DHT22;16247;50.840;4.382;2022-10-16T13:13:42;20.70;99.90
29207;DHT22;16247;50.840;4.382;2022-10-16T13:16:49;20.80;99.90
29207;DHT22;16247;50.840;4.382;2022-10-16T13:29:29;21.10;99.90
29207;DHT22;16247;50.840;4.382;2022-10-16T13:40:25;21.00;99.90
29207;DHT22;16247;50.840;4.382;2022-10-16T13:43:45;21.10;99.90
29207;DHT22;16247;50.840;4.382;2022-10-16T13:47:04;21.10;99.90
29207;DHT22;16247;50.840;4.382;2022-10-16T13:50:34;20.80;99.90
29207;DHT22;16247;50.840;4.382;2022-10-16T13:53:05;20.80;99.90
29207;DHT22;16247;50.840;4.382;2022-10-16T14:02:25;20.50;99.90
29207;DHT22;16247;50.840;4.382;2022-10-16T14:05:18;20.40;99.90
29207;DHT22;16247;50.840;4.382;2022-10-16T14:08:31;20.70;99.90
29207;DHT22;16247;50.840;4.382;2022-10-16T14:11:33;20.80;99.90
29207;DHT22;16247;50.840;4.382;2022-10-16T14:15:02;20.60;99.90
29207;DHT22;16247;50.840;4.382;2022-10-16T14:18:16;20.40;99.90
29207;DHT22;16247;50.840;4.382;2022-10-16T14:21:50;20.60;99.90
29207;DHT22;16247;50.840;4.382;2022-10-16T14:25:27;20.80;99.90
29207;DHT22;16247;50.840;4.382;2022-10-16T14:32:20;20.40;99.90
29207;DHT22;16247;50.840;4.382;2022-10-16T14:35:35;20.70;99.90
29207;DHT22;16247;50.840;4.382;2022-10-16T14:38:56;20.60;99.90
29207;DHT22;16247;50.840;4.382;2022-10-16T14:53:20;20.40;99.90
29207;DHT22;16247;50.840;4.382;2022-10-16T15:00:13;20.10;99.90
29207;DHT22;16247;50.840;4.382;2022-10-16T15:02:50;20.30;99.90
29207;DHT22;16247;50.840;4.382;2022-10-16T15:08:42;20.40;99.90
29207;DHT22;16247;50.840;4.382;2022-10-16T15:11:37;20.20;99.90
29207;DHT22;16247;50.840;4.382;2022-10-16T15:21:47;20.30;99.90
29207;DHT22;16247;50.840;4.382;2022-10-16T15:24:28;20.00;99.90
29207;DHT22;16247;50.840;4.382;2022-10-16T15:55:46;20.00;99.90
29207;DHT22;16247;50.840;4.382;2022-10-16T15:58:54;19.90;99.90
29207;DHT22;16247;50.840;4.382;2022-10-16T16:01:28;19.90;99.90
29207;DHT22;16247;50.840;4.382;2022-10-16T16:04:38;19.70;99.90
29207;DHT22;16247;50.840;4.382;2022-10-16T16:07:44;19.60;99.90
29207;DHT22;16247;50.840;4.382;2022-10-16T16:11:08;19.70;99.90
29207;DHT22;16247;50.840;4.382;2022-10-16T16:13:58;19.60;99.90
29207;DHT22;16247;50.840;4.382;2022-10-16T16:20:06;19.70;99.90
29207;DHT22;16247;50.840;4.382;2022-10-16T16:23:17;19.70;99.90
29207;DHT22;16247;50.840;4.382;2022-10-16T16:26:02;19.50;99.90
29207;DHT22;16247;50.840;4.382;2022-10-16T16:28:32;19.40;99.90
29207;DHT22;16247;50.840;4.382;2022-10-16T16:33:54;19.50;99.90
29207;DHT22;16247;50.840;4.382;2022-10-16T16:36:20;19.30;99.90
29207;DHT22;16247;50.840;4.382;2022-10-16T16:38:49;19.50;99.90
29207;DHT22;16247;50.840;4.382;2022-10-16T16:41:19;19.40;99.90
29207;DHT22;16247;50.840;4.382;2022-10-16T16:43:46;19.40;99.90
29207;DHT22;16247;50.840;4.382;2022-10-16T16:46:15;19.20;99.90
29207;DHT22;16247;50.840;4.382;2022-10-16T16:48:44;19.10;99.90
29207;DHT22;16247;50.840;4.382;2022-10-16T16:51:15;19.00;99.90
29207;DHT22;16247;50.840;4.382;2022-10-16T16:53:48;19.10;99.90
29207;DHT22;16247;50.840;4.382;2022-10-16T16:56:16;19.00;99.90
29207;DHT22;16247;50.840;4.382;2022-10-16T16:58:51;19.10;99.90
29207;DHT22;16247;50.840;4.382;2022-10-16T17:01:36;18.80;99.90
29207;DHT22;16247;50.840;4.382;2022-10-16T17:04:21;18.70;99.90
29207;DHT22;16247;50.840;4.382;2022-10-16T17:06:54;18.70;99.90
29207;DHT22;16247;50.840;4.382;2022-10-16T17:09:35;18.80;99.90
29207;DHT22;16247;50.840;4.382;2022-10-16T17:12:03;18.90;99.90
29207;DHT22;16247;50.840;4.382;2022-10-16T17:14:30;18.90;99.90
29207;DHT22;16247;50.840;4.382;2022-10-16T17:16:55;19.00;99.90
29207;DHT22;16247;50.840;4.382;2022-10-16T17:19:22;18.90;99.90
29207;DHT22;16247;50.840;4.382;2022-10-16T17:21:51;18.80;99.90
29207;DHT22;16247;50.840;4.382;2022-10-16T17:24:20;18.80;99.90
29207;DHT22;16247;50.840;4.382;2022-10-16T17:26:47;18.50;99.90
29207;DHT22;16247;50.840;4.382;2022-10-16T17:29:16;18.60;99.90
29207;DHT22;16247;50.840;4.382;2022-10-16T17:31:46;18.40;99.90
29207;DHT22;16247;50.840;4.382;2022-10-16T17:34:18;18.30;99.90
29207;DHT22;16247;50.840;4.382;2022-10-16T17:36:47;18.20;99.90
29207;DHT22;16247;50.840;4.382;2022-10-16T17:39:16;18.10;99.90
29207;DHT22;16247;50.840;4.382;2022-10-16T17:41:43;18.20;99.90
29207;DHT22;16247;50.840;4.382;2022-10-16T17:44:10;18.30;99.90
29207;DHT22;16247;50.840;4.382;2022-10-16T17:46:40;18.30;99.90
29207;DHT22;16247;50.840;4.382;2022-10-16T17:49:08;18.30;99.90
29207;DHT22;16247;50.840;4.382;2022-10-16T17:51:35;18.30;99.90
29207;DHT22;16247;50.840;4.382;2022-10-16T17:54:01;18.30;99.90
29207;DHT22;16247;50.840;4.382;2022-10-16T17:56:31;18.00;99.90
29207;DHT22;16247;50.840;4.382;2022-10-16T17:59:02;18.00;99.90
29207;DHT22;16247;50.840;4.382;2022-10-16T18:01:34;17.90;99.90
29207;DHT22;16247;50.840;4.382;2022-10-16T18:04:21;17.80;99.90
29207;DHT22;16247;50.840;4.382;2022-10-16T18:06:48;17.70;99.90
29207;DHT22;16247;50.840;4.382;2022-10-16T18:09:36;17.70;99.90
29207;DHT22;16247;50.840;4.382;2022-10-16T18:12:03;17.70;99.90
29207;DHT22;16247;50.840;4.382;2022-10-16T18:14:38;17.80;99.90
29207;DHT22;16247;50.840;4.382;2022-10-16T18:17:09;17.90;99.90
29207;DHT22;16247;50.840;4.382;2022-10-16T18:19:38;18.00;99.90
29207;DHT22;16247;50.840;4.382;2022-10-16T18:22:06;18.10;99.90
29207;DHT22;16247;50.840;4.382;2022-10-16T18:24:36;18.00;99.90
29207;DHT22;16247;50.840;4.382;2022-10-16T19:59:29;17.10;99.90
29207;DHT22;16247;50.840;4.382;2022-10-16T20:01:58;17.00;99.90
29207;DHT22;16247;50.840;4.382;2022-10-16T20:04:24;17.00;99.90
29207;DHT22;16247;50.840;4.382;2022-10-16T20:07:36;16.90;99.90
29207;DHT22;16247;50.840;4.382;2022-10-16T20:10:48;16.90;99.90
29207;DHT22;16247;50.840;4.382;2022-10-16T20:14:01;16.90;99.90
29207;DHT22;16247;50.840;4.382;2022-10-16T20:17:34;16.90;99.90
29207;DHT22;16247;50.840;4.382;2022-10-16T20:20:28;17.20;99.90
29207;DHT22;16247;50.840;4.382;2022-10-16T20:23:17;17.20;99.90
29207;DHT22;16247;50.840;4.382;2022-10-16T20:26:26;17.10;99.90
29207;DHT22;16247;50.840;4.382;2022-10-16T20:29:43;17.10;99.90
29207;DHT22;16247;50.840;4.382;2022-10-16T20:32:57;17.20;99.90
29207;DHT22;16247;50.840;4.382;2022-10-16T20:36:00;17.10;99.90
29207;DHT22;16247;50.840;4.382;2022-10-16T20:38:44;17.00;99.90
29207;DHT22;16247;50.840;4.382;2022-10-16T20:41:55;17.00;99.90
29207;DHT22;16247;50.840;4.382;2022-10-16T20:47:28;16.90;99.90
29207;DHT22;16247;50.840;4.382;2022-10-16T20:50:18;16.80;99.90
29207;DHT22;16247;50.840;4.382;2022-10-16T20:53:12;16.60;99.90
29207;DHT22;16247;50.840;4.382;2022-10-16T20:59:04;16.80;99.90
29207;DHT22;16247;50.840;4.382;2022-10-16T21:01:31;16.80;99.90
29207;DHT22;16247;50.840;4.382;2022-10-16T21:04:33;16.70;99.90
29207;DHT22;16247;50.840;4.382;2022-10-16T21:07:06;16.80;99.90
29207;DHT22;16247;50.840;4.382;2022-10-16T21:10:15;16.90;99.90
29207;DHT22;16247;50.840;4.382;2022-10-16T21:13:26;16.70;99.90
29207;DHT22;16247;50.840;4.382;2022-10-16T21:16:28;16.60;99.90
29207;DHT22;16247;50.840;4.382;2022-10-16T21:19:48;16.40;99.90
29207;DHT22;16247;50.840;4.382;2022-10-16T21:23:06;16.30;99.90
29207;DHT22;16247;50.840;4.382;2022-10-16T21:26:18;16.20;99.90
29207;DHT22;16247;50.840;4.382;2022-10-16T21:29:23;16.00;99.90
29207;DHT22;16247;50.840;4.382;2022-10-16T21:32:19;16.20;99.90
29207;DHT22;16247;50.840;4.382;2022-10-16T21:35:04;16.20;99.90
29207;DHT22;16247;50.840;4.382;2022-10-16T21:38:21;16.20;99.90
29207;DHT22;16247;50.840;4.382;2022-10-16T21:41:18;16.30;99.90
29207;DHT22;16247;50.840;4.382;2022-10-16T21:44:31;16.30;99.90
29207;DHT22;16247;50.840;4.382;2022-10-16T21:47:18;16.40;99.90
29207;DHT22;16247;50.840;4.382;2022-10-16T21:50:30;16.50;99.90
29207;DHT22;16247;50.840;4.382;2022-10-16T21:53:48;16.40;99.90
29207;DHT22;16247;50.840;4.382;2022-10-16T21:57:06;16.40;99.90
29207;DHT22;16247;50.840;4.382;2022-10-16T22:00:21;16.30;99.90
29207;DHT22;16247;50.840;4.382;2022-10-16T22:03:01;16.30;99.90
29207;DHT22;16247;50.840;4.382;2022-10-16T22:08:33;16.30;99.90
29207;DHT22;16247;50.840;4.382;2022-10-16T22:12:03;16.30;99.90
29207;DHT22;16247;50.840;4.382;2022-10-16T22:15:26;16.30;99.90
29207;DHT22;16247;50.840;4.382;2022-10-16T22:18:10;16.30;99.90
29207;DHT22;16247;50.840;4.382;2022-10-16T22:21:20;16.30;99.90
29207;DHT22;16247;50.840;4.382;2022-10-16T22:24:45;16.30;99.90
29207;DHT22;16247;50.840;4.382;2022-10-16T22:27:40;16.20;99.90
29207;DHT22;16247;50.840;4.382;2022-10-16T22:33:22;16.10;99.90
29207;DHT22;16247;50.840;4.382;2022-10-16T23:39:29;16.50;99.90
29207;DHT22;16247;50.840;4.382;2022-10-16T23:46:05;16.70;99.90
29207;DHT22;16247;50.840;4.382;2022-10-16T23:49:16;16.70;99.90
29207;DHT22;16247;50.840;4.382;2022-10-16T23:51:51;16.80;99.90
29207;DHT22;16247;50.840;4.382;2022-10-16T23:55:00;17.00;99.90
29207;DHT22;16247;50.840;4.382;2022-10-16T23:57:46;16.70;99.90
